sensor_id;sensor_type;location;lat;lon;timestamp;temperature;humidity
25410;DHT22;13339;50.840;4.346;2023-04-07T00:00:58;13.20;99.90
25410;DHT22;13339;50.840;4.346;2023-04-07T00:03:23;13.20;99.90
25410;DHT22;13339;50.840;4.346;2023-04-07T00:05:50;13.20;99.90
25410;DHT22;13339;50.840;4.346;2023-04-07T00:08:15;13.10;99.90
25410;DHT22;13339;50.840;4.346;2023-04-07T00:10:41;13.20;99.90
25410;DHT22;13339;50.840;4.346;2023-04-07T00:13:07;13.10;99.90
25410;DHT22;13339;50.840;4.346;2023-04-07T00:15:32;13.20;99.90
25410;DHT22;13339;50.840;4.346;2023-04-07T00:17:58;13.10;99.90
25410;DHT22;13339;50.840;4.346;2023-04-07T00:20:23;13.10;99.90
25410;DHT22;13339;50.840;4.346;2023-04-07T00:22:49;13.20;99.90
25410;DHT22;13339;50.840;4.346;2023-04-07T00:25:15;13.20;99.90
25410;DHT22;13339;50.840;4.346;2023-04-07T00:27:40;13.30;99.90
25410;DHT22;13339;50.840;4.346;2023-04-07T00:30:06;13.20;99.90
25410;DHT22;13339;50.840;4.346;2023-04-07T00:32:32;13.20;99.90
25410;DHT22;13339;50.840;4.346;2023-04-07T00:34:58;13.00;99.90
25410;DHT22;13339;50.840;4.346;2023-04-07T00:37:23;13.10;99.90
25410;DHT22;13339;50.840;4.346;2023-04-07T00:39:50;13.10;99.90
25410;DHT22;13339;50.840;4.346;2023-04-07T00:42:16;13.10;99.90
25410;DHT22;13339;50.840;4.346;2023-04-07T00:44:42;13.10;99.90
25410;DHT22;13339;50.840;4.346;2023-04-07T00:47:08;13.10;99.90
25410;DHT22;13339;50.840;4.346;2023-04-07T00:49:33;13.10;99.90
25410;DHT22;13339;50.840;4.346;2023-04-07T00:52:00;13.10;99.90
25410;DHT22;13339;50.840;4.346;2023-04-07T00:54:26;13.10;99.90
25410;DHT22;13339;50.840;4.346;2023-04-07T00:56:52;13.10;99.90
25410;DHT22;13339;50.840;4.346;2023-04-07T00:59:18;12.90;99.90
25410;DHT22;13339;50.840;4.346;2023-04-07T01:07:20;12.90;99.90
25410;DHT22;13339;50.840;4.346;2023-04-07T01:09:57;13.00;99.90
25410;DHT22;13339;50.840;4.346;2023-04-07T01:12:38;13.00;99.90
25410;DHT22;13339;50.840;4.346;2023-04-07T01:15:10;13.00;99.90
25410;DHT22;13339;50.840;4.346;2023-04-07T01:17:41;13.10;99.90
25410;DHT22;13339;50.840;4.346;2023-04-07T01:20:11;12.90;99.90
25410;DHT22;13339;50.840;4.346;2023-04-07T01:22:44;12.90;99.90
25410;DHT22;13339;50.840;4.346;2023-04-07T01:30:39;12.60;99.90
25410;DHT22;13339;50.840;4.346;2023-04-07T01:33:09;12.60;99.90
25410;DHT22;13339;50.840;4.346;2023-04-07T01:35:36;12.70;99.90
25410;DHT22;13339;50.840;4.346;2023-04-07T01:38:04;12.70;99.90
25410;DHT22;13339;50.840;4.346;2023-04-07T01:40:32;12.80;99.90
25410;DHT22;13339;50.840;4.346;2023-04-07T01:43:00;12.70;99.90
25410;DHT22;13339;50.840;4.346;2023-04-07T01:45:27;12.80;99.90
25410;DHT22;13339;50.840;4.346;2023-04-07T01:47:53;12.80;99.90
25410;DHT22;13339;50.840;4.346;2023-04-07T01:50:20;12.90;99.90
25410;DHT22;13339;50.840;4.346;2023-04-07T01:52:46;12.90;99.90
25410;DHT22;13339;50.840;4.346;2023-04-07T01:55:12;12.70;99.90
25410;DHT22;13339;50.840;4.346;2023-04-07T01:57:38;12.60;99.90
25410;DHT22;13339;50.840;4.346;2023-04-07T02:00:05;12.60;99.90
25410;DHT22;13339;50.840;4.346;2023-04-07T02:02:33;12.70;99.90
25410;DHT22;13339;50.840;4.346;2023-04-07T02:05:04;12.70;99.90
25410;DHT22;13339;50.840;4.346;2023-04-07T02:08:03;12.80;99.90
25410;DHT22;13339;50.840;4.346;2023-04-07T02:10:30;12.70;99.90
25410;DHT22;13339;50.840;4.346;2023-04-07T02:12:57;12.60;99.90
25410;DHT22;13339;50.840;4.346;2023-04-07T02:15:25;12.60;99.90
25410;DHT22;13339;50.840;4.346;2023-04-07T02:17:53;12.60;99.90
25410;DHT22;13339;50.840;4.346;2023-04-07T02:20:20;12.70;99.90
25410;DHT22;13339;50.840;4.346;2023-04-07T02:22:47;12.70;99.90
25410;DHT22;13339;50.840;4.346;2023-04-07T02:25:26;12.70;99.90
25410;DHT22;13339;50.840;4.346;2023-04-07T02:27:52;12.70;99.90
25410;DHT22;13339;50.840;4.346;2023-04-07T02:30:18;12.60;99.90
25410;DHT22;13339;50.840;4.346;2023-04-07T02:32:44;12.50;99.90
25410;DHT22;13339;50.840;4.346;2023-04-07T02:35:10;12.70;99.90
25410;DHT22;13339;50.840;4.346;2023-04-07T02:37:37;12.60;99.90
25410;DHT22;13339;50.840;4.346;2023-04-07T02:40:03;12.60;99.90
25410;DHT22;13339;50.840;4.346;2023-04-07T02:42:30;12.60;99.90
25410;DHT22;13339;50.840;4.346;2023-04-07T02:44:56;12.60;99.90
25410;DHT22;13339;50.840;4.346;2023-04-07T02:47:21;12.70;99.90
25410;DHT22;13339;50.840;4.346;2023-04-07T02:49:47;12.70;99.90
25410;DHT22;13339;50.840;4.346;2023-04-07T02:52:13;12.70;99.90
25410;DHT22;13339;50.840;4.346;2023-04-07T02:54:38;12.70;99.90
25410;DHT22;13339;50.840;4.346;2023-04-07T02:57:04;12.60;99.90
25410;DHT22;13339;50.840;4.346;2023-04-07T02:59:30;12.40;99.90
25410;DHT22;13339;50.840;4.346;2023-04-07T03:01:56;12.30;99.90
25410;DHT22;13339;50.840;4.346;2023-04-07T03:04:21;12.40;99.90
25410;DHT22;13339;50.840;4.346;2023-04-07T03:06:47;12.50;99.90
25410;DHT22;13339;50.840;4.346;2023-04-07T03:09:13;12.60;99.90
25410;DHT22;13339;50.840;4.346;2023-04-07T03:11:39;12.40;99.90
25410;DHT22;13339;50.840;4.346;2023-04-07T03:14:05;12.40;99.90
25410;DHT22;13339;50.840;4.346;2023-04-07T03:16:32;12.40;99.90
25410;DHT22;13339;50.840;4.346;2023-04-07T03:18:58;12.60;99.90
25410;DHT22;13339;50.840;4.346;2023-04-07T03:21:23;12.50;99.90
25410;DHT22;13339;50.840;4.346;2023-04-07T03:23:49;12.50;99.90
25410;DHT22;13339;50.840;4.346;2023-04-07T03:26:15;12.50;99.90
25410;DHT22;13339;50.840;4.346;2023-04-07T03:28:40;12.50;99.90
25410;DHT22;13339;50.840;4.346;2023-04-07T03:31:06;12.60;99.90
25410;DHT22;13339;50.840;4.346;2023-04-07T03:33:32;12.50;99.90
25410;DHT22;13339;50.840;4.346;2023-04-07T03:35:58;12.60;99.90
25410;DHT22;13339;50.840;4.346;2023-04-07T03:38:24;12.70;99.90
25410;DHT22;13339;50.840;4.346;2023-04-07T03:40:50;12.70;99.90
25410;DHT22;13339;50.840;4.346;2023-04-07T03:43:16;12.70;99.90
25410;DHT22;13339;50.840;4.346;2023-04-07T03:45:41;12.60;99.90
25410;DHT22;13339;50.840;4.346;2023-04-07T03:48:07;12.40;99.90
25410;DHT22;13339;50.840;4.346;2023-04-07T03:50:37;12.30;99.90
25410;DHT22;13339;50.840;4.346;2023-04-07T03:53:03;12.40;99.90
25410;DHT22;13339;50.840;4.346;2023-04-07T03:55:29;12.30;99.90
25410;DHT22;13339;50.840;4.346;2023-04-07T03:57:55;12.30;99.90
25410;DHT22;13339;50.840;4.346;2023-04-07T04:00:20;12.30;99.90
25410;DHT22;13339;50.840;4.346;2023-04-07T04:02:46;12.30;99.90
25410;DHT22;13339;50.840;4.346;2023-04-07T04:05:12;12.30;99.90
25410;DHT22;13339;50.840;4.346;2023-04-07T04:07:37;12.20;99.90
25410;DHT22;13339;50.840;4.346;2023-04-07T04:10:03;12.10;99.90
25410;DHT22;13339;50.840;4.346;2023-04-07T04:12:29;12.20;99.90
25410;DHT22;13339;50.840;4.346;2023-04-07T04:14:54;12.20;99.90
25410;DHT22;13339;50.840;4.346;2023-04-07T04:17:20;12.20;99.90
25410;DHT22;13339;50.840;4.346;2023-04-07T04:19:45;12.20;99.90
25410;DHT22;13339;50.840;4.346;2023-04-07T04:22:11;12.10;99.90
25410;DHT22;13339;50.840;4.346;2023-04-07T04:24:37;12.20;99.90
25410;DHT22;13339;50.840;4.346;2023-04-07T04:27:02;12.00;99.90
25410;DHT22;13339;50.840;4.346;2023-04-07T04:29:28;11.90;99.90
25410;DHT22;13339;50.840;4.346;2023-04-07T04:31:53;12.00;99.90
25410;DHT22;13339;50.840;4.346;2023-04-07T04:34:19;12.00;99.90
25410;DHT22;13339;50.840;4.346;2023-04-07T04:36:45;11.70;99.90
25410;DHT22;13339;50.840;4.346;2023-04-07T04:39:10;11.70;99.90
25410;DHT22;13339;50.840;4.346;2023-04-07T04:41:36;11.70;99.90
25410;DHT22;13339;50.840;4.346;2023-04-07T04:44:01;11.70;99.90
25410;DHT22;13339;50.840;4.346;2023-04-07T04:46:27;11.70;99.90
25410;DHT22;13339;50.840;4.346;2023-04-07T04:48:52;11.60;99.90
25410;DHT22;13339;50.840;4.346;2023-04-07T04:51:19;11.70;99.90
25410;DHT22;13339;50.840;4.346;2023-04-07T04:53:44;11.70;99.90
25410;DHT22;13339;50.840;4.346;2023-04-07T04:56:10;11.60;99.90
25410;DHT22;13339;50.840;4.346;2023-04-07T04:58:36;11.60;99.90
25410;DHT22;13339;50.840;4.346;2023-04-07T05:01:04;11.60;99.90
25410;DHT22;13339;50.840;4.346;2023-04-07T05:03:30;11.60;99.90
25410;DHT22;13339;50.840;4.346;2023-04-07T05:05:56;11.70;99.90
25410;DHT22;13339;50.840;4.346;2023-04-07T05:08:21;11.60;99.90
25410;DHT22;13339;50.840;4.346;2023-04-07T05:10:47;11.70;99.90
25410;DHT22;13339;50.840;4.346;2023-04-07T05:13:12;11.70;99.90
25410;DHT22;13339;50.840;4.346;2023-04-07T05:15:40;11.50;99.90
25410;DHT22;13339;50.840;4.346;2023-04-07T05:18:06;11.50;99.90
25410;DHT22;13339;50.840;4.346;2023-04-07T05:20:31;11.40;99.90
25410;DHT22;13339;50.840;4.346;2023-04-07T05:22:57;11.40;99.90
25410;DHT22;13339;50.840;4.346;2023-04-07T05:25:22;11.40;99.90
25410;DHT22;13339;50.840;4.346;2023-04-07T05:27:48;11.40;99.90
25410;DHT22;13339;50.840;4.346;2023-04-07T05:30:14;11.30;99.90
25410;DHT22;13339;50.840;4.346;2023-04-07T05:32:40;11.30;99.90
25410;DHT22;13339;50.840;4.346;2023-04-07T05:35:05;11.40;99.90
25410;DHT22;13339;50.840;4.346;2023-04-07T05:37:31;11.40;99.90
25410;DHT22;13339;50.840;4.346;2023-04-07T05:39:57;11.40;99.90
25410;DHT22;13339;50.840;4.346;2023-04-07T05:42:22;11.30;99.90
25410;DHT22;13339;50.840;4.346;2023-04-07T05:44:48;11.30;99.90
25410;DHT22;13339;50.840;4.346;2023-04-07T05:47:14;11.20;99.90
25410;DHT22;13339;50.840;4.346;2023-04-07T05:49:40;11.30;99.90
25410;DHT22;13339;50.840;4.346;2023-04-07T05:52:11;11.40;99.90
25410;DHT22;13339;50.840;4.346;2023-04-07T05:54:36;11.40;99.90
25410;DHT22;13339;50.840;4.346;2023-04-07T05:57:04;11.50;99.90
25410;DHT22;13339;50.840;4.346;2023-04-07T05:59:30;11.40;99.90
25410;DHT22;13339;50.840;4.346;2023-04-07T06:01:55;11.40;99.90
25410;DHT22;13339;50.840;4.346;2023-04-07T06:04:21;11.50;99.90
25410;DHT22;13339;50.840;4.346;2023-04-07T06:06:46;11.40;99.90
25410;DHT22;13339;50.840;4.346;2023-04-07T06:09:12;11.50;99.90
25410;DHT22;13339;50.840;4.346;2023-04-07T06:11:38;11.60;99.90
25410;DHT22;13339;50.840;4.346;2023-04-07T06:14:03;11.60;99.90
25410;DHT22;13339;50.840;4.346;2023-04-07T06:16:29;11.60;99.90
25410;DHT22;13339;50.840;4.346;2023-04-07T06:18:54;11.60;99.90
25410;DHT22;13339;50.840;4.346;2023-04-07T06:21:20;11.50;99.90
25410;DHT22;13339;50.840;4.346;2023-04-07T06:23:45;11.60;99.90
25410;DHT22;13339;50.840;4.346;2023-04-07T06:26:11;11.70;99.90
25410;DHT22;13339;50.840;4.346;2023-04-07T06:28:37;11.80;99.90
25410;DHT22;13339;50.840;4.346;2023-04-07T06:31:03;11.90;99.90
25410;DHT22;13339;50.840;4.346;2023-04-07T06:33:29;12.00;99.90
25410;DHT22;13339;50.840;4.346;2023-04-07T06:35:55;12.10;99.90
25410;DHT22;13339;50.840;4.346;2023-04-07T06:38:21;12.00;99.90
25410;DHT22;13339;50.840;4.346;2023-04-07T06:40:47;11.90;99.90
25410;DHT22;13339;50.840;4.346;2023-04-07T06:43:12;11.90;99.90
25410;DHT22;13339;50.840;4.346;2023-04-07T06:45:38;11.90;99.90
25410;DHT22;13339;50.840;4.346;2023-04-07T06:48:03;12.10;99.90
25410;DHT22;13339;50.840;4.346;2023-04-07T06:50:29;12.20;99.90
25410;DHT22;13339;50.840;4.346;2023-04-07T06:52:55;12.10;99.90
25410;DHT22;13339;50.840;4.346;2023-04-07T06:55:20;12.00;99.90
25410;DHT22;13339;50.840;4.346;2023-04-07T06:57:46;11.70;99.90
25410;DHT22;13339;50.840;4.346;2023-04-07T07:00:12;11.60;99.90
25410;DHT22;13339;50.840;4.346;2023-04-07T07:02:37;11.60;99.90
25410;DHT22;13339;50.840;4.346;2023-04-07T07:05:03;11.50;99.90
25410;DHT22;13339;50.840;4.346;2023-04-07T07:07:29;11.30;99.90
25410;DHT22;13339;50.840;4.346;2023-04-07T07:09:55;11.40;99.90
25410;DHT22;13339;50.840;4.346;2023-04-07T07:12:21;11.40;99.90
25410;DHT22;13339;50.840;4.346;2023-04-07T07:14:46;11.40;99.90
25410;DHT22;13339;50.840;4.346;2023-04-07T07:17:12;11.40;99.90
25410;DHT22;13339;50.840;4.346;2023-04-07T07:19:38;11.40;99.90
25410;DHT22;13339;50.840;4.346;2023-04-07T07:22:03;11.50;99.90
25410;DHT22;13339;50.840;4.346;2023-04-07T07:24:30;11.60;99.90
25410;DHT22;13339;50.840;4.346;2023-04-07T07:27:01;11.30;99.90
25410;DHT22;13339;50.840;4.346;2023-04-07T07:29:27;11.30;99.90
25410;DHT22;13339;50.840;4.346;2023-04-07T07:31:53;11.20;99.90
25410;DHT22;13339;50.840;4.346;2023-04-07T07:34:18;11.40;99.90
25410;DHT22;13339;50.840;4.346;2023-04-07T07:36:44;11.50;99.90
25410;DHT22;13339;50.840;4.346;2023-04-07T07:39:09;11.80;99.90
25410;DHT22;13339;50.840;4.346;2023-04-07T07:41:35;11.90;99.90
25410;DHT22;13339;50.840;4.346;2023-04-07T07:44:01;12.10;99.90
25410;DHT22;13339;50.840;4.346;2023-04-07T07:46:27;12.10;99.90
25410;DHT22;13339;50.840;4.346;2023-04-07T07:48:52;12.10;99.90
25410;DHT22;13339;50.840;4.346;2023-04-07T07:51:18;12.20;99.90
25410;DHT22;13339;50.840;4.346;2023-04-07T07:53:44;12.00;99.90
25410;DHT22;13339;50.840;4.346;2023-04-07T07:56:10;11.90;99.90
25410;DHT22;13339;50.840;4.346;2023-04-07T07:58:36;11.80;99.90
25410;DHT22;13339;50.840;4.346;2023-04-07T08:01:01;11.80;99.90
25410;DHT22;13339;50.840;4.346;2023-04-07T08:03:27;11.90;99.90
25410;DHT22;13339;50.840;4.346;2023-04-07T08:05:53;12.10;99.90
25410;DHT22;13339;50.840;4.346;2023-04-07T08:08:18;12.10;99.90
25410;DHT22;13339;50.840;4.346;2023-04-07T08:10:44;11.70;99.90
25410;DHT22;13339;50.840;4.346;2023-04-07T08:13:09;11.70;99.90
25410;DHT22;13339;50.840;4.346;2023-04-07T08:15:35;11.60;99.90
25410;DHT22;13339;50.840;4.346;2023-04-07T08:18:01;11.80;99.90
25410;DHT22;13339;50.840;4.346;2023-04-07T08:20:29;11.80;99.90
25410;DHT22;13339;50.840;4.346;2023-04-07T08:22:55;11.90;99.90
25410;DHT22;13339;50.840;4.346;2023-04-07T08:25:20;11.90;99.90
25410;DHT22;13339;50.840;4.346;2023-04-07T08:27:46;12.00;99.90
25410;DHT22;13339;50.840;4.346;2023-04-07T08:30:12;12.10;99.90
25410;DHT22;13339;50.840;4.346;2023-04-07T08:32:40;12.10;99.90
25410;DHT22;13339;50.840;4.346;2023-04-07T08:35:06;12.10;99.90
25410;DHT22;13339;50.840;4.346;2023-04-07T08:37:33;12.10;99.90
25410;DHT22;13339;50.840;4.346;2023-04-07T08:39:59;12.00;99.90
25410;DHT22;13339;50.840;4.346;2023-04-07T08:42:30;11.90;99.90
25410;DHT22;13339;50.840;4.346;2023-04-07T08:44:57;12.00;99.90
25410;DHT22;13339;50.840;4.346;2023-04-07T08:47:25;12.00;99.90
25410;DHT22;13339;50.840;4.346;2023-04-07T08:49:52;12.00;99.90
25410;DHT22;13339;50.840;4.346;2023-04-07T08:52:22;11.80;99.90
25410;DHT22;13339;50.840;4.346;2023-04-07T08:54:52;12.00;99.90
25410;DHT22;13339;50.840;4.346;2023-04-07T08:57:18;12.00;99.90
25410;DHT22;13339;50.840;4.346;2023-04-07T08:59:45;12.00;99.90
25410;DHT22;13339;50.840;4.346;2023-04-07T09:02:14;12.10;99.90
25410;DHT22;13339;50.840;4.346;2023-04-07T09:04:40;12.30;99.90
25410;DHT22;13339;50.840;4.346;2023-04-07T09:07:07;12.10;99.90
25410;DHT22;13339;50.840;4.346;2023-04-07T09:09:32;12.30;99.90
25410;DHT22;13339;50.840;4.346;2023-04-07T09:11:58;12.40;99.90
25410;DHT22;13339;50.840;4.346;2023-04-07T09:14:23;12.40;99.90
25410;DHT22;13339;50.840;4.346;2023-04-07T09:16:49;12.60;99.90
25410;DHT22;13339;50.840;4.346;2023-04-07T09:19:15;12.60;99.90
25410;DHT22;13339;50.840;4.346;2023-04-07T09:21:49;12.60;99.90
25410;DHT22;13339;50.840;4.346;2023-04-07T09:24:26;12.70;99.90
25410;DHT22;13339;50.840;4.346;2023-04-07T09:29:34;13.10;99.90
25410;DHT22;13339;50.840;4.346;2023-04-07T09:32:00;13.40;99.90
25410;DHT22;13339;50.840;4.346;2023-04-07T09:36:51;13.60;99.90
25410;DHT22;13339;50.840;4.346;2023-04-07T09:39:17;13.70;99.90
25410;DHT22;13339;50.840;4.346;2023-04-07T09:41:42;13.70;99.90
25410;DHT22;13339;50.840;4.346;2023-04-07T09:44:09;13.60;99.90
25410;DHT22;13339;50.840;4.346;2023-04-07T09:46:35;13.50;99.90
25410;DHT22;13339;50.840;4.346;2023-04-07T09:49:02;13.50;99.90
25410;DHT22;13339;50.840;4.346;2023-04-07T09:51:30;13.60;99.90
25410;DHT22;13339;50.840;4.346;2023-04-07T09:53:58;13.40;99.90
25410;DHT22;13339;50.840;4.346;2023-04-07T09:56:26;13.30;99.90
25410;DHT22;13339;50.840;4.346;2023-04-07T09:58:53;13.40;99.90
25410;DHT22;13339;50.840;4.346;2023-04-07T10:01:20;13.20;99.90
25410;DHT22;13339;50.840;4.346;2023-04-07T10:03:46;13.10;99.90
25410;DHT22;13339;50.840;4.346;2023-04-07T10:06:12;13.20;99.90
25410;DHT22;13339;50.840;4.346;2023-04-07T10:08:41;13.20;99.90
25410;DHT22;13339;50.840;4.346;2023-04-07T10:11:08;13.40;99.90
25410;DHT22;13339;50.840;4.346;2023-04-07T10:13:36;13.60;99.90
25410;DHT22;13339;50.840;4.346;2023-04-07T10:16:06;14.00;99.90
25410;DHT22;13339;50.840;4.346;2023-04-07T10:18:34;14.30;99.90
25410;DHT22;13339;50.840;4.346;2023-04-07T10:21:02;14.50;99.90
25410;DHT22;13339;50.840;4.346;2023-04-07T10:23:31;14.50;99.90
25410;DHT22;13339;50.840;4.346;2023-04-07T10:25:59;14.40;99.90
25410;DHT22;13339;50.840;4.346;2023-04-07T10:28:26;14.30;99.90
25410;DHT22;13339;50.840;4.346;2023-04-07T10:30:53;14.10;99.90
25410;DHT22;13339;50.840;4.346;2023-04-07T10:36:13;13.50;99.90
25410;DHT22;13339;50.840;4.346;2023-04-07T10:38:39;13.60;99.90
25410;DHT22;13339;50.840;4.346;2023-04-07T10:44:02;13.60;99.90
25410;DHT22;13339;50.840;4.346;2023-04-07T10:49:17;13.50;99.90
25410;DHT22;13339;50.840;4.346;2023-04-07T10:51:43;13.40;99.90
25410;DHT22;13339;50.840;4.346;2023-04-07T10:54:19;13.50;99.90
25410;DHT22;13339;50.840;4.346;2023-04-07T10:59:31;13.10;99.90
25410;DHT22;13339;50.840;4.346;2023-04-07T11:04:45;13.10;99.90
25410;DHT22;13339;50.840;4.346;2023-04-07T11:07:12;13.30;99.90
25410;DHT22;13339;50.840;4.346;2023-04-07T11:09:39;13.40;99.90
25410;DHT22;13339;50.840;4.346;2023-04-07T11:12:06;13.40;99.90
25410;DHT22;13339;50.840;4.346;2023-04-07T11:14:32;13.60;99.90
25410;DHT22;13339;50.840;4.346;2023-04-07T11:16:59;13.70;99.90
25410;DHT22;13339;50.840;4.346;2023-04-07T11:19:28;13.70;99.90
25410;DHT22;13339;50.840;4.346;2023-04-07T11:22:13;13.80;99.90
25410;DHT22;13339;50.840;4.346;2023-04-07T11:24:38;13.60;99.90
25410;DHT22;13339;50.840;4.346;2023-04-07T11:27:04;13.60;99.90
25410;DHT22;13339;50.840;4.346;2023-04-07T11:29:31;13.70;99.90
25410;DHT22;13339;50.840;4.346;2023-04-07T11:31:58;13.60;99.90
25410;DHT22;13339;50.840;4.346;2023-04-07T11:34:31;13.70;99.90
25410;DHT22;13339;50.840;4.346;2023-04-07T11:36:57;13.70;99.90
25410;DHT22;13339;50.840;4.346;2023-04-07T11:39:27;13.70;99.90
25410;DHT22;13339;50.840;4.346;2023-04-07T11:41:55;13.70;99.90
25410;DHT22;13339;50.840;4.346;2023-04-07T11:44:22;13.50;99.90
25410;DHT22;13339;50.840;4.346;2023-04-07T11:46:55;13.60;99.90
25410;DHT22;13339;50.840;4.346;2023-04-07T11:49:22;13.40;99.90
25410;DHT22;13339;50.840;4.346;2023-04-07T11:51:48;13.50;99.90
25410;DHT22;13339;50.840;4.346;2023-04-07T11:54:21;13.70;99.90
25410;DHT22;13339;50.840;4.346;2023-04-07T11:56:47;13.90;99.90
25410;DHT22;13339;50.840;4.346;2023-04-07T11:59:21;14.20;99.90
25410;DHT22;13339;50.840;4.346;2023-04-07T12:01:47;14.30;99.90
25410;DHT22;13339;50.840;4.346;2023-04-07T12:04:13;14.50;99.90
25410;DHT22;13339;50.840;4.346;2023-04-07T12:06:44;14.80;99.90
25410;DHT22;13339;50.840;4.346;2023-04-07T12:09:28;14.90;99.90
25410;DHT22;13339;50.840;4.346;2023-04-07T12:11:55;14.90;99.90
25410;DHT22;13339;50.840;4.346;2023-04-07T12:14:22;15.00;99.90
25410;DHT22;13339;50.840;4.346;2023-04-07T12:16:47;14.60;99.90
25410;DHT22;13339;50.840;4.346;2023-04-07T12:19:13;14.40;99.90
25410;DHT22;13339;50.840;4.346;2023-04-07T12:21:39;14.10;99.90
25410;DHT22;13339;50.840;4.346;2023-04-07T12:24:04;13.90;99.90
25410;DHT22;13339;50.840;4.346;2023-04-07T12:26:30;13.70;99.90
25410;DHT22;13339;50.840;4.346;2023-04-07T12:28:55;13.30;99.90
25410;DHT22;13339;50.840;4.346;2023-04-07T12:31:23;13.50;99.90
25410;DHT22;13339;50.840;4.346;2023-04-07T12:33:48;13.30;99.90
25410;DHT22;13339;50.840;4.346;2023-04-07T12:36:14;13.10;99.90
25410;DHT22;13339;50.840;4.346;2023-04-07T12:38:40;13.20;99.90
25410;DHT22;13339;50.840;4.346;2023-04-07T12:41:06;13.50;99.90
25410;DHT22;13339;50.840;4.346;2023-04-07T12:43:33;13.40;99.90
25410;DHT22;13339;50.840;4.346;2023-04-07T12:45:59;13.40;99.90
25410;DHT22;13339;50.840;4.346;2023-04-07T12:48:25;13.50;99.90
25410;DHT22;13339;50.840;4.346;2023-04-07T12:50:53;13.80;99.90
25410;DHT22;13339;50.840;4.346;2023-04-07T12:53:19;13.80;99.90
25410;DHT22;13339;50.840;4.346;2023-04-07T12:55:46;14.00;99.90
25410;DHT22;13339;50.840;4.346;2023-04-07T12:58:12;14.00;99.90
25410;DHT22;13339;50.840;4.346;2023-04-07T13:00:38;14.10;99.90
25410;DHT22;13339;50.840;4.346;2023-04-07T13:03:06;13.90;99.90
25410;DHT22;13339;50.840;4.346;2023-04-07T13:05:31;13.90;99.90
25410;DHT22;13339;50.840;4.346;2023-04-07T13:07:57;13.90;99.90
25410;DHT22;13339;50.840;4.346;2023-04-07T13:10:22;13.80;99.90
25410;DHT22;13339;50.840;4.346;2023-04-07T13:12:48;13.80;99.90
25410;DHT22;13339;50.840;4.346;2023-04-07T13:15:14;13.60;99.90
25410;DHT22;13339;50.840;4.346;2023-04-07T13:17:39;13.60;99.90
25410;DHT22;13339;50.840;4.346;2023-04-07T13:20:06;13.80;99.90
25410;DHT22;13339;50.840;4.346;2023-04-07T13:22:32;13.70;99.90
25410;DHT22;13339;50.840;4.346;2023-04-07T13:24:58;13.60;99.90
25410;DHT22;13339;50.840;4.346;2023-04-07T13:27:23;13.30;99.90
25410;DHT22;13339;50.840;4.346;2023-04-07T13:29:49;13.30;99.90
25410;DHT22;13339;50.840;4.346;2023-04-07T13:32:15;13.20;99.90
25410;DHT22;13339;50.840;4.346;2023-04-07T13:34:41;13.30;99.90
25410;DHT22;13339;50.840;4.346;2023-04-07T13:37:07;13.30;99.90
25410;DHT22;13339;50.840;4.346;2023-04-07T13:39:32;13.20;99.90
25410;DHT22;13339;50.840;4.346;2023-04-07T13:41:58;13.20;99.90
25410;DHT22;13339;50.840;4.346;2023-04-07T13:44:25;13.10;99.90
25410;DHT22;13339;50.840;4.346;2023-04-07T13:46:52;13.10;99.90
25410;DHT22;13339;50.840;4.346;2023-04-07T13:49:17;13.20;99.90
25410;DHT22;13339;50.840;4.346;2023-04-07T13:51:43;13.20;99.90
25410;DHT22;13339;50.840;4.346;2023-04-07T13:54:09;13.40;99.90
25410;DHT22;13339;50.840;4.346;2023-04-07T13:56:34;13.40;99.90
25410;DHT22;13339;50.840;4.346;2023-04-07T13:59:05;13.40;99.90
25410;DHT22;13339;50.840;4.346;2023-04-07T14:01:32;13.40;99.90
25410;DHT22;13339;50.840;4.346;2023-04-07T14:03:58;13.30;99.90
25410;DHT22;13339;50.840;4.346;2023-04-07T14:06:24;13.00;99.90
25410;DHT22;13339;50.840;4.346;2023-04-07T14:08:51;12.80;99.90
25410;DHT22;13339;50.840;4.346;2023-04-07T14:11:21;12.50;99.90
25410;DHT22;13339;50.840;4.346;2023-04-07T14:13:47;12.50;99.90
25410;DHT22;13339;50.840;4.346;2023-04-07T14:16:13;12.70;99.90
25410;DHT22;13339;50.840;4.346;2023-04-07T14:18:38;12.80;99.90
25410;DHT22;13339;50.840;4.346;2023-04-07T14:21:05;12.90;99.90
25410;DHT22;13339;50.840;4.346;2023-04-07T14:23:30;13.00;99.90
25410;DHT22;13339;50.840;4.346;2023-04-07T14:25:59;12.80;99.90
25410;DHT22;13339;50.840;4.346;2023-04-07T14:28:26;12.50;99.90
25410;DHT22;13339;50.840;4.346;2023-04-07T14:30:52;12.50;99.90
25410;DHT22;13339;50.840;4.346;2023-04-07T14:33:19;12.60;99.90
25410;DHT22;13339;50.840;4.346;2023-04-07T14:35:44;12.70;99.90
25410;DHT22;13339;50.840;4.346;2023-04-07T14:38:10;12.80;99.90
25410;DHT22;13339;50.840;4.346;2023-04-07T14:40:36;12.80;99.90
25410;DHT22;13339;50.840;4.346;2023-04-07T14:43:02;12.90;99.90
25410;DHT22;13339;50.840;4.346;2023-04-07T14:45:28;12.90;99.90
25410;DHT22;13339;50.840;4.346;2023-04-07T14:47:54;13.00;99.90
25410;DHT22;13339;50.840;4.346;2023-04-07T14:50:20;13.00;99.90
25410;DHT22;13339;50.840;4.346;2023-04-07T14:52:45;13.10;99.90
25410;DHT22;13339;50.840;4.346;2023-04-07T14:55:11;13.20;99.90
25410;DHT22;13339;50.840;4.346;2023-04-07T14:57:37;13.20;99.90
25410;DHT22;13339;50.840;4.346;2023-04-07T15:00:03;13.10;99.90
25410;DHT22;13339;50.840;4.346;2023-04-07T15:02:32;13.10;99.90
25410;DHT22;13339;50.840;4.346;2023-04-07T15:04:57;13.10;99.90
25410;DHT22;13339;50.840;4.346;2023-04-07T15:07:23;12.90;99.90
25410;DHT22;13339;50.840;4.346;2023-04-07T15:09:49;12.90;99.90
25410;DHT22;13339;50.840;4.346;2023-04-07T15:12:15;13.10;99.90
25410;DHT22;13339;50.840;4.346;2023-04-07T15:14:40;13.20;99.90
25410;DHT22;13339;50.840;4.346;2023-04-07T15:17:06;13.30;99.90
25410;DHT22;13339;50.840;4.346;2023-04-07T15:19:32;13.30;99.90
25410;DHT22;13339;50.840;4.346;2023-04-07T15:21:58;12.90;99.90
25410;DHT22;13339;50.840;4.346;2023-04-07T15:24:23;13.00;99.90
25410;DHT22;13339;50.840;4.346;2023-04-07T15:26:49;13.10;99.90
25410;DHT22;13339;50.840;4.346;2023-04-07T15:29:14;13.10;99.90
25410;DHT22;13339;50.840;4.346;2023-04-07T15:31:40;13.00;99.90
25410;DHT22;13339;50.840;4.346;2023-04-07T15:34:05;12.70;99.90
25410;DHT22;13339;50.840;4.346;2023-04-07T15:36:31;12.80;99.90
25410;DHT22;13339;50.840;4.346;2023-04-07T15:39:01;12.90;99.90
25410;DHT22;13339;50.840;4.346;2023-04-07T15:41:28;12.80;99.90
25410;DHT22;13339;50.840;4.346;2023-04-07T15:43:53;12.90;99.90
25410;DHT22;13339;50.840;4.346;2023-04-07T15:46:19;12.80;99.90
25410;DHT22;13339;50.840;4.346;2023-04-07T15:48:45;12.70;99.90
25410;DHT22;13339;50.840;4.346;2023-04-07T15:51:12;12.60;99.90
25410;DHT22;13339;50.840;4.346;2023-04-07T15:53:37;12.70;99.90
25410;DHT22;13339;50.840;4.346;2023-04-07T15:56:03;12.80;99.90